Allin, Illinois
Current Conditions -  °F | °C
As of 3:56 AM on Tuesday 21 Oct 2014 (Local Time) from KBMI Reporting Station
Clear Clear  
Wind Chill: 42°   Ceiling: Unl
Heat Index: 45°   Visibility: 10mi
Dew Point: 41°   Wind: 6mph
Humidity: 86%   Direction: 330°NNW
Pressure: 30.04"   Gusts: NA
Location:  40.4427°N, 89.2086°W
Report Text: KBMI 210856Z AUTO 33005KT 10SM CLR 07/05 A3004 RMK AO2 51006 T00720050 SLP174
Loading
Personal Weather Stations






























Interactive Weather Map New forecast layout! Learn more

10-Day Weather Forecast

Advertisements
Track Severe Weather on mobile